Time;durP1;ratioP1;P1;durP2;ratioP2;P2;SDS_P1;SDS_P2;PMS_P1;PMS_P2;Temp;Humidity;BMP_temperature;BMP_pressure;BME280_temperature;BME280_humidity;BME280_pressure;Samples;Min_cycle;Max_cycle;Signal;HPM_P1;HPM_P2
2023/01/09 00:01:52;;;;;;;1.77;0.90;;;;;;;;;;5054744;28;20215;-65
2023/01/09 00:04:19;;;;;;;0.90;0.90;;;;;;;;;;5054621;28;20708;-65
2023/01/09 00:06:52;;;;;;;0.90;0.90;;;;;;;;;;5054396;28;20216;-64
2023/01/09 00:09:20;;;;;;;0.70;0.70;;;;;;;;;;5053734;28;20325;-64
2023/01/09 00:11:47;;;;;;;0.80;0.80;;;;;;;;;;5058633;28;20737;-64
2023/01/09 00:14:14;;;;;;;1.03;0.97;;;;;;;;;;5056163;28;20314;-64
2023/01/09 00:16:41;;;;;;;0.93;0.90;;;;;;;;;;5056324;28;20211;-64
2023/01/09 00:19:08;;;;;;;0.90;0.80;;;;;;;;;;5056322;28;20252;-65
2023/01/09 00:21:36;;;;;;;0.63;0.63;;;;;;;;;;5056694;28;20211;-65
2023/01/09 00:24:04;;;;;;;2.80;0.77;;;;;;;;;;5054849;28;20679;-65
2023/01/09 00:26:31;;;;;;;0.73;0.73;;;;;;;;;;5053991;28;20207;-65
2023/01/09 00:28:59;;;;;;;0.80;0.80;;;;;;;;;;5052819;28;20740;-65
2023/01/09 00:31:26;;;;;;;0.93;0.93;;;;;;;;;;5054841;28;20231;-65
2023/01/09 00:33:55;;;;;;;0.80;0.80;;;;;;;;;;5057920;28;20203;-65
2023/01/09 00:36:22;;;;;;;0.97;0.97;;;;;;;;;;5051062;28;20256;-65
2023/01/09 00:38:49;;;;;;;0.93;0.93;;;;;;;;;;5061107;28;20743;-64
2023/01/09 00:41:19;;;;;;;1.17;1.17;;;;;;;;;;5059294;28;20207;-65
2023/01/09 00:43:48;;;;;;;2.20;1.17;;;;;;;;;;5059021;28;20218;-64
2023/01/09 00:46:16;;;;;;;0.80;0.80;;;;;;;;;;5059048;28;20609;-64
2023/01/09 00:48:44;;;;;;;1.23;1.23;;;;;;;;;;5059588;28;20309;-65
2023/01/09 00:51:11;;;;;;;0.70;0.70;;;;;;;;;;5059728;28;20207;-65
2023/01/09 00:53:40;;;;;;;0.93;0.93;;;;;;;;;;5056478;28;20575;-65
2023/01/09 00:56:09;;;;;;;3.60;1.00;;;;;;;;;;5059849;28;20232;-65
2023/01/09 00:58:37;;;;;;;0.87;0.87;;;;;;;;;;5059135;28;20211;-64
2023/01/09 01:01:05;;;;;;;0.93;0.93;;;;;;;;;;5049615;28;20265;-64
2023/01/09 01:03:32;;;;;;;1.10;1.10;;;;;;;;;;5050084;28;20257;-66
2023/01/09 01:08:44;;;;;;;1.00;1.00;;;;;;;;;;5056661;28;20281;-65
2023/01/09 01:11:12;;;;;;;0.87;0.87;;;;;;;;;;5061514;28;20671;-64
2023/01/09 01:13:41;;;;;;;0.80;0.80;;;;;;;;;;5058681;28;20294;-64
2023/01/09 01:16:10;;;;;;;0.93;0.93;;;;;;;;;;5057355;28;20693;-64
2023/01/09 01:18:37;;;;;;;0.90;0.90;;;;;;;;;;5058605;28;20222;-64
2023/01/09 01:21:07;;;;;;;2.10;1.10;;;;;;;;;;5061817;28;20206;-64
2023/01/09 01:23:34;;;;;;;0.80;0.67;;;;;;;;;;5059217;28;20298;-65
2023/01/09 01:26:04;;;;;;;1.10;1.10;;;;;;;;;;5062097;28;20215;-65
2023/01/09 01:28:31;;;;;;;0.80;0.77;;;;;;;;;;5050641;28;20253;-65
2023/01/09 01:31:00;;;;;;;1.17;0.70;;;;;;;;;;5050661;28;20204;-64
2023/01/09 01:33:27;;;;;;;0.83;0.70;;;;;;;;;;5057268;28;20322;-64
2023/01/09 01:36:00;;;;;;;0.80;0.80;;;;;;;;;;5051048;28;20234;-64
2023/01/09 01:38:27;;;;;;;0.53;0.53;;;;;;;;;;5059933;28;20298;-65
2023/01/09 01:40:54;;;;;;;0.87;0.60;;;;;;;;;;5059829;28;20207;-64
2023/01/09 01:43:21;;;;;;;0.50;0.50;;;;;;;;;;5058038;28;20219;-65
2023/01/09 01:45:48;;;;;;;0.50;0.50;;;;;;;;;;5062199;28;20257;-65
2023/01/09 01:48:18;;;;;;;0.57;0.57;;;;;;;;;;5059954;28;20207;-65
2023/01/09 01:50:47;;;;;;;0.50;0.50;;;;;;;;;;5061974;28;20199;-65
2023/01/09 01:53:15;;;;;;;0.40;0.40;;;;;;;;;;5058076;28;20693;-65
2023/01/09 01:55:45;;;;;;;0.70;0.67;;;;;;;;;;5060164;28;20693;-66
2023/01/09 01:58:14;;;;;;;0.60;0.60;;;;;;;;;;5060063;28;20256;-63
2023/01/09 02:00:43;;;;;;;1.43;1.20;;;;;;;;;;5059205;28;20667;-63
2023/01/09 02:03:10;;;;;;;0.73;0.73;;;;;;;;;;5058942;28;20657;-63
2023/01/09 02:05:39;;;;;;;1.00;1.00;;;;;;;;;;5059985;28;20210;-63
2023/01/09 02:08:07;;;;;;;0.60;0.60;;;;;;;;;;5057416;28;20288;-63
2023/01/09 02:10:34;;;;;;;0.87;0.87;;;;;;;;;;5058370;28;20232;-63
2023/01/09 02:13:02;;;;;;;0.80;0.80;;;;;;;;;;5057551;28;20211;-63
2023/01/09 02:15:31;;;;;;;0.60;0.60;;;;;;;;;;5057642;28;20227;-63
2023/01/09 02:18:05;;;;;;;0.80;0.80;;;;;;;;;;5056720;28;20277;-64
2023/01/09 02:20:44;;;;;;;0.73;0.73;;;;;;;;;;5059253;28;20208;-63
2023/01/09 02:23:30;;;;;;;0.83;0.70;;;;;;;;;;5048799;28;20589;-64
2023/01/09 02:26:07;;;;;;;0.70;0.70;;;;;;;;;;5057651;28;20608;-64
2023/01/09 02:28:48;;;;;;;0.70;0.70;;;;;;;;;;5048118;28;20845;-64
2023/01/09 02:31:20;;;;;;;0.60;0.60;;;;;;;;;;5056856;28;20202;-65
2023/01/09 02:33:51;;;;;;;2.00;0.63;;;;;;;;;;5058757;28;20210;-64
2023/01/09 02:36:23;;;;;;;0.53;0.53;;;;;;;;;;5058431;28;20227;-64
2023/01/09 02:38:54;;;;;;;0.40;0.40;;;;;;;;;;5057242;28;20807;-65
2023/01/09 02:41:24;;;;;;;0.50;0.50;;;;;;;;;;5056229;28;20285;-64
2023/01/09 02:44:02;;;;;;;0.60;0.60;;;;;;;;;;5057849;28;20211;-64
2023/01/09 02:46:30;;;;;;;0.40;0.40;;;;;;;;;;5048538;28;20229;-64
2023/01/09 02:48:57;;;;;;;0.40;0.40;;;;;;;;;;5054802;28;20208;-64
2023/01/09 02:51:29;;;;;;;0.30;0.30;;;;;;;;;;5056465;28;20732;-64
2023/01/09 02:54:02;;;;;;;0.30;0.30;;;;;;;;;;5058744;28;20206;-63
2023/01/09 02:56:35;;;;;;;0.30;0.30;;;;;;;;;;5056294;28;20223;-63
2023/01/09 02:59:11;;;;;;;0.30;0.30;;;;;;;;;;5058783;28;20207;-63
2023/01/09 03:01:45;;;;;;;0.10;0.10;;;;;;;;;;5057973;28;20206;-63
2023/01/09 03:04:16;;;;;;;1.37;0.30;;;;;;;;;;5055642;28;20235;-63
2023/01/09 03:06:47;;;;;;;0.20;0.20;;;;;;;;;;5055694;28;20208;-64
2023/01/09 03:09:15;;;;;;;0.10;0.10;;;;;;;;;;5058895;28;20270;-64
2023/01/09 03:11:44;;;;;;;0.20;0.20;;;;;;;;;;5058493;28;20215;-64
2023/01/09 03:14:13;;;;;;;0.03;0.03;;;;;;;;;;5056348;28;20202;-64
2023/01/09 03:16:43;;;;;;;0.10;0.10;;;;;;;;;;5055448;28;20219;-64
2023/01/09 03:19:13;;;;;;;0.20;0.20;;;;;;;;;;5054933;28;20203;-64
2023/01/09 03:21:41;;;;;;;0.53;0.30;;;;;;;;;;5057502;28;20861;-63
2023/01/09 03:24:08;;;;;;;0.50;0.20;;;;;;;;;;5057743;28;20225;-64
2023/01/09 03:26:35;;;;;;;0.10;0.10;;;;;;;;;;5057361;28;20196;-63
2023/01/09 03:29:03;;;;;;;0.00;0.00;;;;;;;;;;5055743;28;20238;-64
2023/01/09 03:31:30;;;;;;;0.00;0.00;;;;;;;;;;5057917;28;20297;-64
2023/01/09 03:33:58;;;;;;;0.00;0.00;;;;;;;;;;5056389;28;20959;-64
2023/01/09 03:36:25;;;;;;;0.10;0.10;;;;;;;;;;5055668;28;20234;-63
2023/01/09 03:38:52;;;;;;;0.00;0.00;;;;;;;;;;5057701;28;20295;-63
2023/01/09 03:41:20;;;;;;;0.00;0.00;;;;;;;;;;5056167;28;20207;-63
2023/01/09 03:43:47;;;;;;;0.07;0.07;;;;;;;;;;5057564;28;20196;-64
2023/01/09 03:46:14;;;;;;;0.10;0.10;;;;;;;;;;5056335;28;20302;-63
2023/01/09 03:48:41;;;;;;;0.00;0.00;;;;;;;;;;5050869;28;20200;-63
2023/01/09 03:51:09;;;;;;;0.00;0.00;;;;;;;;;;5057258;28;20223;-64
2023/01/09 03:53:37;;;;;;;0.00;0.00;;;;;;;;;;5057754;28;20612;-64
2023/01/09 03:56:07;;;;;;;0.00;0.00;;;;;;;;;;5055343;28;20766;-64
2023/01/09 03:58:34;;;;;;;0.00;0.00;;;;;;;;;;5055761;28;20222;-65
2023/01/09 04:01:02;;;;;;;0.07;0.07;;;;;;;;;;5054653;28;20265;-65
2023/01/09 04:03:29;;;;;;;0.00;0.00;;;;;;;;;;5057257;28;20199;-65
2023/01/09 04:05:56;;;;;;;0.00;0.00;;;;;;;;;;5054067;28;20221;-64
2023/01/09 04:08:25;;;;;;;0.07;0.07;;;;;;;;;;5055722;28;20222;-65
2023/01/09 04:10:52;;;;;;;0.30;0.20;;;;;;;;;;5055344;28;20321;-65
2023/01/09 04:13:19;;;;;;;0.40;0.40;;;;;;;;;;5055190;28;20409;-65
2023/01/09 04:15:46;;;;;;;0.20;0.20;;;;;;;;;;5055195;28;20545;-65
2023/01/09 04:18:16;;;;;;;0.40;0.40;;;;;;;;;;5057026;28;20215;-64
2023/01/09 04:20:43;;;;;;;0.10;0.10;;;;;;;;;;5051761;28;20587;-64
2023/01/09 04:23:10;;;;;;;0.50;0.20;;;;;;;;;;5055772;28;20214;-64
2023/01/09 04:25:38;;;;;;;0.97;0.30;;;;;;;;;;5057620;28;20326;-64
2023/01/09 04:28:05;;;;;;;0.20;0.20;;;;;;;;;;5056349;28;20715;-65
2023/01/09 04:30:32;;;;;;;0.10;0.10;;;;;;;;;;5055254;28;20245;-65
2023/01/09 04:32:59;;;;;;;0.30;0.30;;;;;;;;;;5053150;28;20207;-65
2023/01/09 04:35:26;;;;;;;0.10;0.10;;;;;;;;;;5059435;28;20647;-64
2023/01/09 04:37:53;;;;;;;0.20;0.20;;;;;;;;;;5056127;28;20208;-63
2023/01/09 04:40:21;;;;;;;0.20;0.20;;;;;;;;;;5054943;28;20207;-64
2023/01/09 04:42:49;;;;;;;0.20;0.20;;;;;;;;;;5049979;28;20234;-65
2023/01/09 04:45:16;;;;;;;0.00;0.00;;;;;;;;;;5048672;28;20662;-63
2023/01/09 04:47:44;;;;;;;0.07;0.07;;;;;;;;;;5060036;28;20204;-63
2023/01/09 04:50:12;;;;;;;0.00;0.00;;;;;;;;;;5050005;28;20982;-63
2023/01/09 04:52:39;;;;;;;0.20;0.10;;;;;;;;;;5061853;28;20220;-64
2023/01/09 04:55:07;;;;;;;0.00;0.00;;;;;;;;;;5061520;28;20208;-64
2023/01/09 04:57:34;;;;;;;0.00;0.00;;;;;;;;;;5052569;28;20310;-64
2023/01/09 05:00:02;;;;;;;0.00;0.00;;;;;;;;;;5063252;28;20199;-63
2023/01/09 05:02:29;;;;;;;0.00;0.00;;;;;;;;;;5056188;28;20204;-63
2023/01/09 05:04:56;;;;;;;0.00;0.00;;;;;;;;;;5057028;28;20206;-63
2023/01/09 05:07:23;;;;;;;0.10;0.00;;;;;;;;;;5047211;28;20203;-63
2023/01/09 05:09:50;;;;;;;0.00;0.00;;;;;;;;;;5047569;28;20717;-63
2023/01/09 05:12:17;;;;;;;0.00;0.00;;;;;;;;;;5047427;28;20200;-63
2023/01/09 05:14:45;;;;;;;0.00;0.00;;;;;;;;;;5047449;28;20210;-64
2023/01/09 05:17:13;;;;;;;0.00;0.00;;;;;;;;;;5047876;28;20235;-64
2023/01/09 05:19:41;;;;;;;0.00;0.00;;;;;;;;;;5048878;28;20270;-64
2023/01/09 05:22:08;;;;;;;0.00;0.00;;;;;;;;;;5051441;28;20261;-64
2023/01/09 05:24:35;;;;;;;0.13;0.03;;;;;;;;;;5058526;28;20606;-64
2023/01/09 05:27:02;;;;;;;0.10;0.10;;;;;;;;;;5068933;28;20215;-63
2023/01/09 05:29:29;;;;;;;0.33;0.27;;;;;;;;;;5065851;28;20301;-64
2023/01/09 05:31:56;;;;;;;0.00;0.00;;;;;;;;;;5070082;28;20211;-64
2023/01/09 05:34:25;;;;;;;1.23;0.23;;;;;;;;;;5062784;28;20207;-64
2023/01/09 05:36:52;;;;;;;0.57;0.00;;;;;;;;;;5069340;28;20371;-64
2023/01/09 05:39:19;;;;;;;0.00;0.00;;;;;;;;;;5070424;28;20272;-64
2023/01/09 05:41:46;;;;;;;0.10;0.10;;;;;;;;;;5056872;28;20204;-65
2023/01/09 05:44:13;;;;;;;0.10;0.10;;;;;;;;;;5051503;28;20215;-65
2023/01/09 05:46:40;;;;;;;0.10;0.10;;;;;;;;;;5058718;28;20710;-65
2023/01/09 05:49:07;;;;;;;0.10;0.10;;;;;;;;;;5064814;28;20265;-64
2023/01/09 05:51:35;;;;;;;0.10;0.10;;;;;;;;;;5052630;28;20876;-64
2023/01/09 05:54:03;;;;;;;0.00;0.00;;;;;;;;;;5065456;28;20210;-64
2023/01/09 05:56:30;;;;;;;0.30;0.30;;;;;;;;;;5061735;28;20281;-65
2023/01/09 05:58:57;;;;;;;0.37;0.33;;;;;;;;;;5050907;28;20215;-64
2023/01/09 06:01:24;;;;;;;1.47;0.30;;;;;;;;;;5049656;28;20630;-65
2023/01/09 06:03:51;;;;;;;0.20;0.20;;;;;;;;;;5048737;28;20207;-65
2023/01/09 06:06:18;;;;;;;1.70;0.20;;;;;;;;;;5054656;28;20200;-65
2023/01/09 06:08:47;;;;;;;1.83;0.20;;;;;;;;;;5062215;28;20575;-65
2023/01/09 06:11:15;;;;;;;0.13;0.10;;;;;;;;;;5068349;28;20207;-65
2023/01/09 06:13:42;;;;;;;0.90;0.30;;;;;;;;;;5065500;28;20276;-64
2023/01/09 06:16:09;;;;;;;0.20;0.20;;;;;;;;;;5052028;28;20666;-64
2023/01/09 06:18:36;;;;;;;0.10;0.10;;;;;;;;;;5057354;28;20253;-62
2023/01/09 06:21:03;;;;;;;0.40;0.27;;;;;;;;;;5056374;28;20922;-64
2023/01/09 06:23:30;;;;;;;0.30;0.30;;;;;;;;;;5063214;28;20265;-64
2023/01/09 06:25:58;;;;;;;1.43;0.10;;;;;;;;;;5051239;28;20277;-64
2023/01/09 06:28:25;;;;;;;0.10;0.10;;;;;;;;;;5060850;28;20215;-64
2023/01/09 06:30:52;;;;;;;1.17;0.17;;;;;;;;;;5060662;28;20218;-64
2023/01/09 06:33:20;;;;;;;0.33;0.17;;;;;;;;;;5055743;28;20600;-64
2023/01/09 06:35:47;;;;;;;0.10;0.10;;;;;;;;;;5062828;28;20218;-64
2023/01/09 06:38:14;;;;;;;1.80;0.30;;;;;;;;;;5060914;28;20261;-64
2023/01/09 06:40:41;;;;;;;0.10;0.10;;;;;;;;;;5056536;28;20268;-64
2023/01/09 06:43:09;;;;;;;0.60;0.20;;;;;;;;;;5052065;28;20774;-65
2023/01/09 06:45:36;;;;;;;2.97;0.40;;;;;;;;;;5062555;28;20269;-64
2023/01/09 06:48:03;;;;;;;1.73;0.27;;;;;;;;;;5066622;28;20671;-64
2023/01/09 06:50:31;;;;;;;1.83;0.20;;;;;;;;;;5060379;28;20219;-63
2023/01/09 06:52:58;;;;;;;0.20;0.20;;;;;;;;;;5050187;28;20212;-64
2023/01/09 06:55:26;;;;;;;0.10;0.10;;;;;;;;;;5049315;28;20683;-64
2023/01/09 06:57:53;;;;;;;0.30;0.30;;;;;;;;;;5050377;28;20318;-63
2023/01/09 07:00:21;;;;;;;2.27;0.27;;;;;;;;;;5052098;28;20207;-64
2023/01/09 07:02:49;;;;;;;0.10;0.10;;;;;;;;;;5051871;28;20220;-64
2023/01/09 07:05:16;;;;;;;0.23;0.20;;;;;;;;;;5069893;28;20211;-63
2023/01/09 07:07:43;;;;;;;1.60;0.10;;;;;;;;;;5054578;28;20204;-64
2023/01/09 07:10:10;;;;;;;0.87;0.20;;;;;;;;;;5052597;28;20230;-63
2023/01/09 07:12:37;;;;;;;0.63;0.30;;;;;;;;;;5062477;28;20223;-63
2023/01/09 07:15:05;;;;;;;0.10;0.10;;;;;;;;;;5049770;28;20231;-63
2023/01/09 07:17:33;;;;;;;0.63;0.20;;;;;;;;;;5049708;28;20228;-63
2023/01/09 07:20:00;;;;;;;0.10;0.10;;;;;;;;;;5049412;28;20215;-63
2023/01/09 07:22:28;;;;;;;0.30;0.17;;;;;;;;;;5048930;28;20252;-64
2023/01/09 07:24:55;;;;;;;1.13;0.50;;;;;;;;;;5060736;28;20202;-63
2023/01/09 07:27:22;;;;;;;0.50;0.40;;;;;;;;;;5069395;28;20264;-64
2023/01/09 07:29:50;;;;;;;0.20;0.10;;;;;;;;;;5069583;28;20207;-64
2023/01/09 07:32:17;;;;;;;0.10;0.10;;;;;;;;;;5069337;28;20211;-63
2023/01/09 07:34:45;;;;;;;1.60;0.10;;;;;;;;;;5067497;28;20211;-64
2023/01/09 07:37:12;;;;;;;4.13;0.30;;;;;;;;;;5069150;28;20227;-65
2023/01/09 07:39:39;;;;;;;5.17;0.10;;;;;;;;;;5054344;28;20208;-63
2023/01/09 07:42:06;;;;;;;1.07;0.17;;;;;;;;;;5064336;28;20203;-64
2023/01/09 07:44:33;;;;;;;1.50;0.20;;;;;;;;;;5052179;28;20949;-63
2023/01/09 07:47:00;;;;;;;0.40;0.33;;;;;;;;;;5057743;28;20210;-64
2023/01/09 07:49:27;;;;;;;0.10;0.10;;;;;;;;;;5059240;28;20252;-64
2023/01/09 07:51:56;;;;;;;0.03;0.03;;;;;;;;;;5049090;28;20623;-64
2023/01/09 07:54:23;;;;;;;0.20;0.20;;;;;;;;;;5059039;28;20207;-64
2023/01/09 07:56:50;;;;;;;0.37;0.37;;;;;;;;;;5068785;28;20223;-64
2023/01/09 07:59:17;;;;;;;0.10;0.10;;;;;;;;;;5068513;28;20280;-64
2023/01/09 08:01:44;;;;;;;0.20;0.20;;;;;;;;;;5054674;28;20212;-64
2023/01/09 08:04:11;;;;;;;0.70;0.40;;;;;;;;;;5050078;28;20667;-64
2023/01/09 08:06:38;;;;;;;0.90;0.17;;;;;;;;;;5058207;28;20211;-64
2023/01/09 08:09:06;;;;;;;0.43;0.40;;;;;;;;;;5068396;28;20235;-64
2023/01/09 08:11:33;;;;;;;0.20;0.20;;;;;;;;;;5068840;28;20226;-64
2023/01/09 08:14:01;;;;;;;0.47;0.00;;;;;;;;;;5061648;28;20208;-64
2023/01/09 08:16:31;;;;;;;6.20;0.33;;;;;;;;;;5060090;28;20363;-63
2023/01/09 08:18:58;;;;;;;1.60;0.30;;;;;;;;;;5068976;28;20215;-64
2023/01/09 08:21:25;;;;;;;0.20;0.13;;;;;;;;;;5068864;28;20210;-63
2023/01/09 08:23:53;;;;;;;0.20;0.20;;;;;;;;;;5063664;28;20211;-64
2023/01/09 08:26:21;;;;;;;0.93;0.30;;;;;;;;;;5049296;28;20207;-64
2023/01/09 08:28:48;;;;;;;0.23;0.23;;;;;;;;;;5057638;28;20288;-63
2023/01/09 08:31:15;;;;;;;0.17;0.17;;;;;;;;;;5066935;28;20729;-64
2023/01/09 08:33:42;;;;;;;1.30;0.47;;;;;;;;;;5066517;28;20219;-64
2023/01/09 08:36:10;;;;;;;0.20;0.20;;;;;;;;;;5068574;28;20608;-64
2023/01/09 08:38:37;;;;;;;0.80;0.10;;;;;;;;;;5068682;28;20283;-64
2023/01/09 08:47:04;;;;;;;0.20;0.20;;;;;;;;;;5068508;28;20264;-64
2023/01/09 08:49:18;;;;;;;0.47;0.10;;;;;;;;;;5048992;28;20203;-64
2023/01/09 08:51:45;;;;;;;0.10;0.10;;;;;;;;;;5049099;28;20207;-63
2023/01/09 08:54:12;;;;;;;0.10;0.10;;;;;;;;;;5063652;28;20212;-65
2023/01/09 08:56:39;;;;;;;0.27;0.10;;;;;;;;;;5060634;28;20315;-65
2023/01/09 08:59:08;;;;;;;1.90;0.10;;;;;;;;;;5060107;28;20711;-66
2023/01/09 09:01:35;;;;;;;0.00;0.00;;;;;;;;;;5063518;28;20258;-63
2023/01/09 09:04:04;;;;;;;0.00;0.00;;;;;;;;;;5063293;28;20207;-63
2023/01/09 09:06:31;;;;;;;1.17;0.07;;;;;;;;;;5065161;28;20218;-66
2023/01/09 09:09:01;;;;;;;0.63;0.20;;;;;;;;;;5051925;28;20670;-65
2023/01/09 09:11:29;;;;;;;0.10;0.10;;;;;;;;;;5065316;28;20268;-65
2023/01/09 09:13:55;;;;;;;0.10;0.10;;;;;;;;;;5051875;28;20666;-66
2023/01/09 09:16:24;;;;;;;0.40;0.20;;;;;;;;;;5064670;28;20273;-65
2023/01/09 09:18:51;;;;;;;0.30;0.13;;;;;;;;;;5062987;28;20748;-66
2023/01/09 09:21:19;;;;;;;0.10;0.10;;;;;;;;;;5049914;28;20208;-62
2023/01/09 09:23:46;;;;;;;0.27;0.27;;;;;;;;;;5067689;28;20268;-66
2023/01/09 09:26:13;;;;;;;0.20;0.20;;;;;;;;;;5067926;28;20207;-65
2023/01/09 09:28:40;;;;;;;1.23;0.10;;;;;;;;;;5051898;28;20278;-66
2023/01/09 09:31:07;;;;;;;0.20;0.20;;;;;;;;;;5056469;28;20199;-65
2023/01/09 09:33:36;;;;;;;4.70;0.63;;;;;;;;;;5064467;28;20272;-65
2023/01/09 09:36:03;;;;;;;0.10;0.10;;;;;;;;;;5054551;28;20220;-66
2023/01/09 09:38:30;;;;;;;5.40;0.37;;;;;;;;;;5052239;28;20227;-66
2023/01/09 09:41:07;;;;;;;0.47;0.10;;;;;;;;;;5051618;28;20211;-66
2023/01/09 09:46:51;;;;;;;1.07;0.20;;;;;;;;;;5061938;28;20230;-65
2023/01/09 09:49:22;;;;;;;2.47;0.30;;;;;;;;;;5056717;28;20210;-65
2023/01/09 09:52:03;;;;;;;0.17;0.17;;;;;;;;;;5066602;28;20203;-64
2023/01/09 09:54:33;;;;;;;0.30;0.30;;;;;;;;;;5064676;28;20237;-65
2023/01/09 09:57:02;;;;;;;0.20;0.20;;;;;;;;;;5068821;28;20223;-66
2023/01/09 09:59:32;;;;;;;1.20;0.10;;;;;;;;;;5066305;28;20332;-65
2023/01/09 10:02:00;;;;;;;0.57;0.20;;;;;;;;;;5065704;28;20238;-65
2023/01/09 10:04:30;;;;;;;0.13;0.13;;;;;;;;;;5056995;28;20694;-66
2023/01/09 10:07:00;;;;;;;0.10;0.10;;;;;;;;;;5063557;28;20207;-66
2023/01/09 10:09:34;;;;;;;0.50;0.10;;;;;;;;;;5067237;28;20231;-66
2023/01/09 10:15:14;;;;;;;0.13;0.13;;;;;;;;;;5056903;28;20190;-66
2023/01/09 10:17:48;;;;;;;0.50;0.10;;;;;;;;;;5069521;28;20264;-66
2023/01/09 10:20:33;;;;;;;0.10;0.10;;;;;;;;;;5070159;28;20214;-66
2023/01/09 10:23:04;;;;;;;0.13;0.03;;;;;;;;;;5069983;28;20260;-65
2023/01/09 10:25:35;;;;;;;0.83;0.20;;;;;;;;;;5058798;28;20743;-65
2023/01/09 10:28:11;;;;;;;0.00;0.00;;;;;;;;;;5064705;28;20581;-65
2023/01/09 10:30:41;;;;;;;0.10;0.10;;;;;;;;;;5052765;28;20211;-65
2023/01/09 10:33:18;;;;;;;0.07;0.07;;;;;;;;;;5053605;28;20273;-65
2023/01/09 10:36:00;;;;;;;0.60;0.20;;;;;;;;;;5050357;28;20895;-66
2023/01/09 10:38:31;;;;;;;0.60;0.30;;;;;;;;;;5029953;28;20235;-67
2023/01/09 10:41:02;;;;;;;0.00;0.00;;;;;;;;;;5052194;28;20211;-66
2023/01/09 10:43:31;;;;;;;0.10;0.10;;;;;;;;;;5069593;28;20211;-65
2023/01/09 10:46:02;;;;;;;0.07;0.07;;;;;;;;;;5058879;28;20207;-66
2023/01/09 10:48:30;;;;;;;0.20;0.20;;;;;;;;;;5050920;28;20196;-66
2023/01/09 10:50:58;;;;;;;0.07;0.07;;;;;;;;;;5055313;28;20280;-69
2023/01/09 10:53:27;;;;;;;0.37;0.10;;;;;;;;;;5049712;28;20737;-65
2023/01/09 10:55:58;;;;;;;0.10;0.10;;;;;;;;;;5053732;28;20229;-67
2023/01/09 10:58:25;;;;;;;0.10;0.10;;;;;;;;;;5051263;28;20281;-67
2023/01/09 11:00:52;;;;;;;0.10;0.10;;;;;;;;;;5054696;28;20207;-67
2023/01/09 11:03:20;;;;;;;0.50;0.10;;;;;;;;;;5059342;28;20215;-67
2023/01/09 11:05:50;;;;;;;0.20;0.20;;;;;;;;;;5047675;28;20212;-67
2023/01/09 11:08:22;;;;;;;0.17;0.17;;;;;;;;;;5048706;28;20211;-68
2023/01/09 11:10:49;;;;;;;0.10;0.10;;;;;;;;;;5058806;28;20238;-64
2023/01/09 11:13:21;;;;;;;0.00;0.00;;;;;;;;;;5068535;28;20207;-68
2023/01/09 11:15:59;;;;;;;0.87;0.10;;;;;;;;;;5067642;28;20203;-65
2023/01/09 11:18:26;;;;;;;0.60;0.53;;;;;;;;;;5061064;28;20231;-66
2023/01/09 11:20:53;;;;;;;0.23;0.23;;;;;;;;;;5057266;28;20207;-66
2023/01/09 11:23:24;;;;;;;0.10;0.10;;;;;;;;;;5050722;28;20210;-66
2023/01/09 11:25:52;;;;;;;0.77;0.43;;;;;;;;;;5051305;28;20284;-66
2023/01/09 11:28:21;;;;;;;0.70;0.30;;;;;;;;;;5058858;28;20199;-66
2023/01/09 11:30:52;;;;;;;0.20;0.20;;;;;;;;;;5050103;28;20700;-66
2023/01/09 11:33:20;;;;;;;0.83;0.27;;;;;;;;;;5048450;28;20211;-67
2023/01/09 11:35:55;;;;;;;0.20;0.20;;;;;;;;;;5048740;28;20218;-66
2023/01/09 11:38:22;;;;;;;0.30;0.10;;;;;;;;;;5048790;28;20241;-66
2023/01/09 11:40:50;;;;;;;0.30;0.10;;;;;;;;;;5046048;28;20226;-67
2023/01/09 11:43:19;;;;;;;0.10;0.10;;;;;;;;;;5047907;28;20203;-66
2023/01/09 11:45:50;;;;;;;0.20;0.20;;;;;;;;;;5065908;28;20284;-67
2023/01/09 11:48:18;;;;;;;3.33;0.27;;;;;;;;;;5055179;28;20218;-62
2023/01/09 11:50:53;;;;;;;1.80;0.20;;;;;;;;;;5048242;28;20281;-69
2023/01/09 11:53:21;;;;;;;0.23;0.20;;;;;;;;;;5047304;28;20294;-68
2023/01/09 11:55:52;;;;;;;0.07;0.07;;;;;;;;;;5055709;28;20646;-66
2023/01/09 11:58:19;;;;;;;0.10;0.10;;;;;;;;;;5058186;28;20287;-70
2023/01/09 12:00:52;;;;;;;0.10;0.10;;;;;;;;;;5066545;28;20250;-69
2023/01/09 12:03:23;;;;;;;0.60;0.20;;;;;;;;;;5062922;28;20214;-68
2023/01/09 12:05:53;;;;;;;0.10;0.10;;;;;;;;;;5055387;28;20210;-69
2023/01/09 12:08:31;;;;;;;0.53;0.10;;;;;;;;;;5048631;28;20207;-66
2023/01/09 12:11:08;;;;;;;0.23;0.20;;;;;;;;;;5064368;28;20246;-67
2023/01/09 12:13:45;;;;;;;1.17;0.13;;;;;;;;;;5068069;28;20215;-66
2023/01/09 12:16:19;;;;;;;0.10;0.10;;;;;;;;;;5065712;28;20244;-68
2023/01/09 12:18:55;;;;;;;0.27;0.27;;;;;;;;;;5066466;28;20289;-68
2023/01/09 12:21:29;;;;;;;0.40;0.20;;;;;;;;;;5067784;28;20222;-67
2023/01/09 12:24:01;;;;;;;1.23;0.20;;;;;;;;;;5064671;28;20251;-67
2023/01/09 12:26:32;;;;;;;0.50;0.20;;;;;;;;;;5047344;28;20584;-67
2023/01/09 12:29:06;;;;;;;0.07;0.07;;;;;;;;;;5062934;28;20605;-68
2023/01/09 12:31:41;;;;;;;1.70;0.20;;;;;;;;;;5074239;28;20211;-68
2023/01/09 12:34:15;;;;;;;0.40;0.17;;;;;;;;;;5071763;28;20364;-68
2023/01/09 12:36:47;;;;;;;0.40;0.00;;;;;;;;;;5069206;28;20214;-68
2023/01/09 12:39:20;;;;;;;1.50;0.10;;;;;;;;;;5055820;28;20235;-68
2023/01/09 12:42:05;;;;;;;0.20;0.17;;;;;;;;;;5071390;28;20207;-66
2023/01/09 12:44:42;;;;;;;1.77;0.10;;;;;;;;;;5070471;28;20242;-68
2023/01/09 12:47:17;;;;;;;0.20;0.20;;;;;;;;;;5057091;28;20711;-66
2023/01/09 12:49:48;;;;;;;0.20;0.20;;;;;;;;;;5058326;28;20203;-68
2023/01/09 12:52:19;;;;;;;0.23;0.23;;;;;;;;;;5071352;28;20222;-62
2023/01/09 12:54:47;;;;;;;0.07;0.07;;;;;;;;;;5060993;28;20298;-69
2023/01/09 12:57:15;;;;;;;0.27;0.17;;;;;;;;;;5065885;28;20292;-70
2023/01/09 12:59:45;;;;;;;0.10;0.10;;;;;;;;;;5057858;28;20219;-71
2023/01/09 13:02:18;;;;;;;0.10;0.10;;;;;;;;;;5071290;28;20211;-67
2023/01/09 13:04:47;;;;;;;0.20;0.20;;;;;;;;;;5058081;28;20207;-68
2023/01/09 13:07:18;;;;;;;0.10;0.10;;;;;;;;;;5058023;28;20612;-67
2023/01/09 13:09:48;;;;;;;0.70;0.20;;;;;;;;;;5057791;28;20298;-69
2023/01/09 13:12:20;;;;;;;0.60;0.20;;;;;;;;;;5050489;28;20212;-68
2023/01/09 13:14:49;;;;;;;0.60;0.40;;;;;;;;;;5051303;28;20204;-67
2023/01/09 13:17:20;;;;;;;0.10;0.10;;;;;;;;;;5051230;28;20212;-68
2023/01/09 13:19:48;;;;;;;0.63;0.27;;;;;;;;;;5046952;28;20230;-68
2023/01/09 13:22:16;;;;;;;1.43;0.30;;;;;;;;;;5056552;28;20299;-68
2023/01/09 13:24:52;;;;;;;0.00;0.00;;;;;;;;;;5050417;28;20226;-67
2023/01/09 13:27:20;;;;;;;0.20;0.10;;;;;;;;;;5052095;28;20211;-67
2023/01/09 13:29:48;;;;;;;0.07;0.07;;;;;;;;;;5069408;28;20199;-67
2023/01/09 13:32:35;;;;;;;0.10;0.10;;;;;;;;;;5053997;28;20280;-67
2023/01/09 13:35:02;;;;;;;0.10;0.10;;;;;;;;;;5050207;28;20285;-68
2023/01/09 13:37:30;;;;;;;0.10;0.10;;;;;;;;;;5069225;28;20219;-68
2023/01/09 13:39:58;;;;;;;1.17;0.20;;;;;;;;;;5069179;28;20238;-68
2023/01/09 13:42:43;;;;;;;0.07;0.07;;;;;;;;;;5062787;28;20207;-68
2023/01/09 13:45:11;;;;;;;0.53;0.23;;;;;;;;;;5050065;28;20208;-70
2023/01/09 13:47:40;;;;;;;0.00;0.00;;;;;;;;;;5051322;28;20648;-68
2023/01/09 13:50:23;;;;;;;0.00;0.00;;;;;;;;;;5049390;28;20210;-68
2023/01/09 13:52:51;;;;;;;0.00;0.00;;;;;;;;;;5063711;28;20214;-66
2023/01/09 13:55:34;;;;;;;0.00;0.00;;;;;;;;;;5057826;28;20203;-68
2023/01/09 13:58:21;;;;;;;1.37;0.10;;;;;;;;;;5060545;28;20635;-67
2023/01/09 14:00:49;;;;;;;1.53;0.20;;;;;;;;;;5069089;28;20210;-68
2023/01/09 14:03:22;;;;;;;0.20;0.20;;;;;;;;;;5054254;28;20299;-68
2023/01/09 14:06:19;;;;;;;3.30;0.47;;;;;;;;;;5058908;28;20219;-67
2023/01/09 14:08:47;;;;;;;0.20;0.20;;;;;;;;;;5057701;28;20405;-67
2023/01/09 14:11:19;;;;;;;0.10;0.10;;;;;;;;;;5050089;28;20330;-67
2023/01/09 14:13:47;;;;;;;0.30;0.30;;;;;;;;;;5054059;28;20203;-67
2023/01/09 14:16:19;;;;;;;0.57;0.20;;;;;;;;;;5055292;28;20199;-67
2023/01/09 14:18:50;;;;;;;0.30;0.30;;;;;;;;;;5052227;28;21719;-68
2023/01/09 14:21:17;;;;;;;0.30;0.30;;;;;;;;;;5065342;28;20236;-67
2023/01/09 14:23:49;;;;;;;0.10;0.10;;;;;;;;;;5049478;28;20211;-62
2023/01/09 14:26:17;;;;;;;0.60;0.20;;;;;;;;;;5051060;28;20775;-66
2023/01/09 14:28:44;;;;;;;0.10;0.10;;;;;;;;;;5063694;28;20226;-68
2023/01/09 14:31:26;;;;;;;3.40;0.10;;;;;;;;;;5067870;28;20693;-68
2023/01/09 14:34:19;;;;;;;0.53;0.20;;;;;;;;;;5050776;28;20218;-68
2023/01/09 14:36:46;;;;;;;2.77;0.10;;;;;;;;;;5049364;28;20290;-67
2023/01/09 14:39:14;;;;;;;0.10;0.10;;;;;;;;;;5048166;28;20223;-68
2023/01/09 14:42:04;;;;;;;0.07;0.07;;;;;;;;;;5064705;28;20207;-66
2023/01/09 14:44:32;;;;;;;0.10;0.10;;;;;;;;;;5052143;28;20682;-69
2023/01/09 14:47:00;;;;;;;0.00;0.00;;;;;;;;;;5049640;28;20215;-67
2023/01/09 14:49:33;;;;;;;0.07;0.07;;;;;;;;;;5049449;28;20581;-67
2023/01/09 14:52:02;;;;;;;0.43;0.37;;;;;;;;;;5047885;28;20705;-68
2023/01/09 14:54:32;;;;;;;0.20;0.20;;;;;;;;;;5048397;28;20212;-64
2023/01/09 14:57:00;;;;;;;0.20;0.20;;;;;;;;;;5060027;28;20257;-68
2023/01/09 14:59:27;;;;;;;0.10;0.10;;;;;;;;;;5055496;28;20265;-67
2023/01/09 15:01:56;;;;;;;0.00;0.00;;;;;;;;;;5066883;28;20310;-66
2023/01/09 15:04:33;;;;;;;1.30;0.10;;;;;;;;;;5065119;28;20229;-74
2023/01/09 15:07:01;;;;;;;0.10;0.10;;;;;;;;;;5068619;28;20202;-68
2023/01/09 15:09:28;;;;;;;0.20;0.20;;;;;;;;;;5064087;28;20273;-70
2023/01/09 15:11:57;;;;;;;0.00;0.00;;;;;;;;;;5048576;28;20269;-69